createdAt,value
2023-05-21T00:00:31.803Z,100.00
2023-05-21T00:02:58.291Z,100.00
2023-05-21T00:05:24.779Z,100.00
2023-05-21T00:07:51.179Z,100.00
2023-05-21T00:10:17.594Z,100.00
2023-05-21T00:12:43.974Z,100.00
2023-05-21T00:15:10.401Z,100.00
2023-05-21T00:17:36.951Z,100.00
2023-05-21T00:20:03.576Z,100.00
2023-05-21T00:22:30.047Z,100.00
2023-05-21T00:24:56.507Z,100.00
2023-05-21T00:27:22.957Z,100.00
2023-05-21T00:29:49.357Z,100.00
2023-05-21T00:32:15.752Z,100.00
2023-05-21T00:34:42.243Z,100.00
2023-05-21T00:37:08.690Z,100.00
2023-05-21T00:39:35.097Z,100.00
2023-05-21T00:42:01.498Z,100.00
2023-05-21T00:44:27.931Z,100.00
2023-05-21T00:46:54.388Z,100.00
2023-05-21T00:49:20.852Z,100.00
2023-05-21T00:51:47.300Z,100.00
2023-05-21T00:54:13.701Z,100.00
2023-05-21T00:56:40.197Z,100.00
2023-05-21T00:59:06.618Z,100.00
2023-05-21T01:01:33.109Z,100.00
2023-05-21T01:03:59.569Z,100.00
2023-05-21T01:06:25.952Z,100.00
2023-05-21T01:08:52.378Z,100.00
2023-05-21T01:11:18.790Z,100.00
2023-05-21T01:13:45.184Z,100.00
2023-05-21T01:16:11.560Z,100.00
2023-05-21T01:18:38.427Z,100.00
2023-05-21T01:21:04.970Z,100.00
2023-05-21T01:23:31.348Z,100.00
2023-05-21T01:25:57.761Z,100.00
2023-05-21T01:28:24.193Z,100.00
2023-05-21T01:30:50.595Z,100.00
2023-05-21T01:33:17.194Z,100.00
2023-05-21T01:35:43.797Z,100.00
2023-05-21T01:38:10.199Z,100.00
2023-05-21T01:40:36.640Z,100.00
2023-05-21T01:43:03.034Z,100.00
2023-05-21T01:45:29.520Z,100.00
2023-05-21T01:47:55.968Z,100.00
2023-05-21T01:50:22.417Z,100.00
2023-05-21T01:52:48.879Z,100.00
2023-05-21T01:55:15.326Z,100.00
2023-05-21T01:57:41.722Z,100.00
2023-05-21T02:00:08.118Z,100.00
2023-05-21T02:02:34.725Z,100.00
2023-05-21T02:05:01.252Z,100.00
2023-05-21T02:07:27.644Z,100.00
2023-05-21T02:09:54.054Z,100.00
2023-05-21T02:12:20.437Z,100.00
2023-05-21T02:14:46.868Z,100.00
2023-05-21T02:17:13.326Z,100.00
2023-05-21T02:19:39.714Z,100.00
2023-05-21T02:22:06.123Z,100.00
2023-05-21T02:24:32.563Z,100.00
2023-05-21T02:26:58.972Z,100.00
2023-05-21T02:29:25.419Z,100.00
2023-05-21T02:31:51.805Z,100.00
2023-05-21T02:34:18.251Z,100.00
2023-05-21T02:36:44.695Z,100.00
2023-05-21T02:39:11.120Z,100.00
2023-05-21T02:41:37.551Z,100.00
2023-05-21T02:44:03.948Z,100.00
2023-05-21T02:46:30.510Z,100.00
2023-05-21T02:48:57.013Z,100.00
2023-05-21T02:51:23.437Z,100.00
2023-05-21T02:53:49.911Z,100.00
2023-05-21T02:56:16.378Z,100.00
2023-05-21T02:58:42.866Z,100.00
2023-05-21T03:01:09.428Z,100.00
2023-05-21T03:03:35.913Z,100.00
2023-05-21T03:06:02.393Z,100.00
2023-05-21T03:08:28.802Z,100.00
2023-05-21T03:10:55.235Z,100.00
2023-05-21T03:13:21.702Z,100.00
2023-05-21T03:15:48.142Z,100.00
2023-05-21T03:18:14.659Z,100.00
2023-05-21T03:20:41.114Z,100.00
2023-05-21T03:23:07.511Z,100.00
2023-05-21T03:25:34.059Z,100.00
2023-05-21T03:28:00.708Z,100.00
2023-05-21T03:30:27.103Z,100.00
2023-05-21T03:32:53.548Z,100.00
2023-05-21T03:35:20.015Z,100.00
2023-05-21T03:37:46.420Z,100.00
2023-05-21T03:40:12.872Z,100.00
2023-05-21T03:42:39.334Z,100.00
2023-05-21T03:45:05.752Z,100.00
2023-05-21T03:47:32.223Z,100.00
2023-05-21T03:49:58.628Z,100.00
2023-05-21T03:52:25.060Z,100.00
2023-05-21T03:54:51.442Z,100.00
2023-05-21T03:57:17.861Z,100.00
2023-05-21T03:59:44.261Z,100.00
2023-05-21T04:02:10.647Z,100.00
2023-05-21T04:04:37.162Z,100.00
2023-05-21T04:07:03.651Z,100.00
2023-05-21T04:09:30.035Z,100.00
2023-05-21T04:11:56.415Z,100.00
2023-05-21T04:14:22.846Z,100.00
2023-05-21T04:16:49.352Z,100.00
2023-05-21T04:19:15.835Z,100.00
2023-05-21T04:21:42.278Z,100.00
2023-05-21T04:24:08.734Z,100.00
2023-05-21T04:26:35.162Z,100.00
2023-05-21T04:29:01.593Z,100.00
2023-05-21T04:31:28.180Z,100.00
2023-05-21T04:33:54.610Z,100.00
2023-05-21T04:36:21.046Z,100.00
2023-05-21T04:38:47.441Z,100.00
2023-05-21T04:41:13.884Z,100.00
2023-05-21T04:43:40.338Z,100.00
2023-05-21T04:46:06.729Z,100.00
2023-05-21T04:48:33.128Z,100.00
2023-05-21T04:50:59.548Z,100.00
2023-05-21T04:53:26.219Z,100.00
2023-05-21T04:55:52.708Z,100.00
2023-05-21T04:58:19.198Z,100.00
2023-05-21T05:00:45.648Z,100.00
2023-05-21T05:03:12.159Z,100.00
2023-05-21T05:05:38.872Z,100.00
2023-05-21T05:08:05.525Z,100.00
2023-05-21T05:10:31.957Z,100.00
2023-05-21T05:12:58.427Z,100.00
2023-05-21T05:15:24.843Z,100.00
2023-05-21T05:17:51.303Z,100.00
2023-05-21T05:20:17.711Z,100.00
2023-05-21T05:22:44.108Z,100.00
2023-05-21T05:25:10.660Z,100.00
2023-05-21T05:27:38.476Z,100.00
2023-05-21T05:30:05.187Z,100.00
2023-05-21T05:32:31.621Z,100.00
2023-05-21T05:34:58.532Z,100.00
2023-05-21T05:37:25.905Z,100.00
2023-05-21T05:39:52.333Z,100.00
2023-05-21T05:42:18.778Z,100.00
2023-05-21T05:44:45.160Z,100.00
2023-05-21T05:47:11.590Z,100.00
2023-05-21T05:49:38.007Z,100.00
2023-05-21T05:52:04.385Z,100.00
2023-05-21T05:54:30.779Z,100.00
2023-05-21T05:56:57.226Z,100.00
2023-05-21T05:59:23.682Z,100.00
2023-05-21T06:01:50.101Z,100.00
2023-05-21T06:04:16.535Z,100.00
2023-05-21T06:06:43.055Z,100.00
2023-05-21T06:09:09.488Z,100.00
2023-05-21T06:11:35.931Z,100.00
2023-05-21T06:14:02.381Z,100.00
2023-05-21T06:16:28.843Z,100.00
2023-05-21T06:18:55.298Z,100.00
2023-05-21T06:21:21.806Z,100.00
2023-05-21T06:23:48.265Z,100.00
2023-05-21T06:26:14.652Z,100.00
2023-05-21T06:28:41.091Z,100.00
2023-05-21T06:31:07.492Z,100.00
2023-05-21T06:33:33.975Z,100.00
2023-05-21T06:36:00.503Z,100.00
2023-05-21T06:38:26.887Z,100.00
2023-05-21T06:40:53.329Z,100.00
2023-05-21T06:43:19.730Z,100.00
2023-05-21T06:45:46.161Z,100.00
2023-05-21T06:48:12.559Z,100.00
2023-05-21T06:50:39.013Z,100.00
2023-05-21T06:53:05.481Z,100.00
2023-05-21T06:55:31.872Z,100.00
2023-05-21T06:57:58.329Z,100.00
2023-05-21T07:00:24.774Z,100.00
2023-05-21T07:02:51.220Z,100.00
2023-05-21T07:05:17.695Z,100.00
2023-05-21T07:07:44.108Z,100.00
2023-05-21T07:10:10.483Z,100.00
2023-05-21T07:12:36.914Z,100.00
2023-05-21T07:15:03.333Z,100.00
2023-05-21T07:17:29.781Z,100.00
2023-05-21T07:19:56.245Z,100.00
2023-05-21T07:22:22.658Z,100.00
2023-05-21T07:24:49.057Z,100.00
2023-05-21T07:27:25.308Z,100.00
2023-05-21T07:29:52.556Z,100.00
2023-05-21T07:32:18.960Z,100.00
2023-05-21T07:34:45.402Z,100.00
2023-05-21T07:37:11.800Z,100.00
2023-05-21T07:39:38.238Z,100.00
2023-05-21T07:42:04.677Z,100.00
2023-05-21T07:44:31.087Z,100.00
2023-05-21T07:46:57.526Z,100.00
2023-05-21T07:49:23.914Z,100.00
2023-05-21T07:51:50.357Z,100.00
2023-05-21T07:54:16.792Z,100.00
2023-05-21T07:56:43.251Z,100.00
2023-05-21T07:59:10.026Z,100.00
2023-05-21T08:01:37.634Z,100.00
2023-05-21T08:04:04.230Z,100.00
2023-05-21T08:06:30.875Z,99.54
2023-05-21T08:08:57.260Z,98.25
2023-05-21T08:11:23.690Z,96.36
2023-05-21T08:13:50.159Z,97.68
2023-05-21T08:16:16.638Z,100.00
2023-05-21T08:18:43.191Z,100.00
2023-05-21T08:21:09.656Z,100.00
2023-05-21T08:23:36.058Z,100.00
2023-05-21T08:26:02.509Z,100.00
2023-05-21T08:28:28.951Z,98.31
2023-05-21T08:30:55.404Z,99.10
2023-05-21T08:33:21.861Z,99.19
2023-05-21T08:35:48.261Z,100.00
2023-05-21T08:38:14.705Z,96.56
2023-05-21T08:40:41.096Z,96.63
2023-05-21T08:43:07.502Z,95.81
2023-05-21T08:45:34.069Z,96.28
2023-05-21T08:48:00.557Z,94.50
2023-05-21T08:50:27.023Z,99.31
2023-05-21T08:52:53.483Z,96.72
2023-05-21T08:55:19.937Z,97.07
2023-05-21T08:57:46.369Z,97.67
2023-05-21T09:00:12.915Z,98.80
2023-05-21T09:02:39.444Z,100.00
2023-05-21T09:05:05.892Z,100.00
2023-05-21T09:07:32.291Z,96.32
2023-05-21T09:09:58.721Z,94.10
2023-05-21T09:12:25.173Z,94.22
2023-05-21T09:14:51.630Z,93.00
2023-05-21T09:17:18.021Z,94.45
2023-05-21T09:19:44.454Z,91.81
2023-05-21T09:22:10.850Z,93.63
2023-05-21T09:24:37.285Z,93.98
2023-05-21T09:27:03.691Z,92.92
2023-05-21T09:29:30.097Z,94.55
2023-05-21T09:31:56.500Z,95.84
2023-05-21T09:34:22.965Z,92.07
2023-05-21T09:36:49.404Z,92.69
2023-05-21T09:39:15.805Z,90.74
2023-05-21T09:41:42.235Z,91.45
2023-05-21T09:44:08.681Z,90.73
2023-05-21T09:46:35.157Z,91.95
2023-05-21T09:49:01.615Z,90.34
2023-05-21T09:51:28.061Z,90.05
2023-05-21T09:53:54.502Z,90.45
2023-05-21T09:56:20.898Z,92.28
2023-05-21T09:58:47.296Z,86.10
2023-05-21T10:01:13.769Z,89.80
2023-05-21T10:03:49.920Z,92.11
2023-05-21T10:06:17.054Z,92.10
2023-05-21T10:08:43.440Z,90.29
2023-05-21T10:11:09.873Z,88.60
2023-05-21T10:13:36.310Z,90.43
2023-05-21T10:16:02.782Z,88.23
2023-05-21T10:18:29.293Z,86.42
2023-05-21T10:20:55.695Z,87.90
2023-05-21T10:23:22.143Z,89.69
2023-05-21T10:25:48.675Z,86.82
2023-05-21T10:28:15.078Z,91.29
2023-05-21T10:30:41.538Z,92.50
2023-05-21T10:33:08.030Z,90.54
2023-05-21T10:35:35.091Z,87.17
2023-05-21T10:38:01.939Z,85.86
2023-05-21T10:40:28.367Z,87.68
2023-05-21T10:42:54.816Z,87.93
2023-05-21T10:45:21.210Z,87.01
2023-05-21T10:47:47.666Z,87.69
2023-05-21T10:50:14.113Z,88.37
2023-05-21T10:52:40.557Z,88.27
2023-05-21T10:55:06.976Z,88.73
2023-05-21T10:57:33.424Z,84.60
2023-05-21T10:59:59.878Z,87.94
2023-05-21T11:02:26.333Z,88.18
2023-05-21T11:04:52.841Z,81.26
2023-05-21T11:07:19.227Z,81.72
2023-05-21T11:09:45.659Z,83.74
2023-05-21T11:12:12.275Z,83.55
2023-05-21T11:14:38.740Z,83.77
2023-05-21T11:17:05.214Z,79.56
2023-05-21T11:19:33.980Z,78.71
2023-05-21T11:22:00.674Z,78.88
2023-05-21T11:24:27.050Z,81.42
2023-05-21T11:26:53.491Z,80.74
2023-05-21T11:29:19.884Z,81.37
2023-05-21T11:31:46.401Z,80.95
2023-05-21T11:34:12.907Z,80.89
2023-05-21T11:36:39.291Z,75.84
2023-05-21T11:39:05.713Z,83.57
2023-05-21T11:41:32.165Z,78.37
2023-05-21T11:43:58.593Z,76.56
2023-05-21T11:46:25.103Z,76.66
2023-05-21T11:48:51.499Z,70.69
2023-05-21T11:51:17.859Z,77.17
2023-05-21T11:53:44.567Z,65.94
2023-05-21T11:56:11.061Z,67.41
2023-05-21T11:58:37.486Z,67.91
2023-05-21T12:01:03.894Z,66.24
2023-05-21T12:03:30.455Z,65.89
2023-05-21T12:05:57.248Z,67.62
2023-05-21T12:08:23.678Z,72.47
2023-05-21T12:10:50.057Z,66.13
2023-05-21T12:13:16.426Z,68.14
2023-05-21T12:15:42.851Z,67.35
2023-05-21T12:18:09.255Z,64.85
2023-05-21T12:20:35.823Z,67.39
2023-05-21T12:23:02.427Z,65.16
2023-05-21T12:25:28.838Z,64.92
2023-05-21T12:27:55.279Z,65.41
2023-05-21T12:30:21.653Z,62.62
2023-05-21T12:32:48.056Z,64.79
2023-05-21T12:35:14.560Z,59.35
2023-05-21T12:37:40.955Z,59.75
2023-05-21T12:40:07.337Z,63.28
2023-05-21T12:42:33.774Z,59.54
2023-05-21T12:45:00.170Z,62.11
2023-05-21T12:47:26.716Z,55.56
2023-05-21T12:49:54.837Z,54.78
2023-05-21T12:52:21.710Z,58.96
2023-05-21T12:54:48.130Z,60.29
2023-05-21T12:57:14.560Z,58.15
2023-05-21T12:59:40.941Z,62.52
2023-05-21T13:02:07.367Z,62.55
2023-05-21T13:04:33.970Z,66.61
2023-05-21T13:07:01.075Z,64.52
2023-05-21T13:09:28.310Z,63.59
2023-05-21T13:11:54.743Z,63.92
2023-05-21T13:14:21.128Z,68.73
2023-05-21T13:16:47.595Z,64.23
2023-05-21T13:19:14.046Z,65.21
2023-05-21T13:21:40.502Z,68.74
2023-05-21T13:24:06.873Z,67.49
2023-05-21T13:26:33.291Z,61.66
2023-05-21T13:28:59.728Z,67.43
2023-05-21T13:31:26.169Z,65.06
2023-05-21T13:33:52.602Z,64.21
2023-05-21T13:36:19.072Z,63.15
2023-05-21T13:38:45.456Z,64.94
2023-05-21T13:41:11.884Z,64.07
2023-05-21T13:43:38.313Z,65.79
2023-05-21T13:46:04.695Z,64.55
2023-05-21T13:48:31.117Z,60.53
2023-05-21T13:50:57.695Z,60.40
2023-05-21T13:53:24.132Z,59.86
2023-05-21T13:55:50.585Z,61.92
2023-05-21T13:58:16.990Z,55.33
2023-05-21T14:00:43.538Z,53.30
2023-05-21T14:03:10.144Z,53.77
2023-05-21T14:05:36.610Z,54.52
2023-05-21T14:08:03.036Z,48.47
2023-05-21T14:10:29.439Z,53.08
2023-05-21T14:13:01.640Z,51.22
2023-05-21T14:15:38.401Z,53.87
2023-05-21T14:18:05.086Z,54.34
2023-05-21T14:20:31.559Z,52.27
2023-05-21T14:22:57.946Z,51.70
2023-05-21T14:25:24.373Z,49.60
2023-05-21T14:27:50.814Z,50.15
2023-05-21T14:30:17.244Z,45.83
2023-05-21T14:32:43.702Z,45.25
2023-05-21T14:35:10.137Z,44.62
2023-05-21T14:37:36.520Z,42.76
2023-05-21T14:40:02.911Z,42.34
2023-05-21T14:42:29.333Z,42.51
2023-05-21T14:44:55.774Z,44.03
2023-05-21T14:47:22.320Z,44.53
2023-05-21T14:49:50.880Z,46.18
2023-05-21T14:52:17.969Z,44.24
2023-05-21T14:54:44.687Z,45.19
2023-05-21T14:57:11.117Z,43.65
2023-05-21T14:59:37.499Z,42.90
2023-05-21T15:02:03.910Z,44.88
2023-05-21T15:04:30.308Z,44.25
2023-05-21T15:06:56.675Z,44.02
2023-05-21T15:09:23.086Z,40.88
2023-05-21T15:11:49.525Z,40.93
2023-05-21T15:14:16.009Z,42.25
2023-05-21T15:16:42.498Z,42.10
2023-05-21T15:19:09.033Z,43.17
2023-05-21T15:21:35.471Z,40.30
2023-05-21T15:24:01.864Z,42.96
2023-05-21T15:26:28.337Z,42.08
2023-05-21T15:28:54.778Z,45.22
2023-05-21T15:31:21.242Z,49.04
2023-05-21T15:33:47.674Z,49.57
2023-05-21T15:36:14.116Z,47.58
2023-05-21T15:38:40.517Z,47.20
2023-05-21T15:41:06.942Z,51.14
2023-05-21T15:43:33.381Z,51.18
2023-05-21T15:45:59.849Z,53.53
2023-05-21T15:48:26.253Z,54.28
2023-05-21T15:50:52.689Z,54.86
2023-05-21T15:53:19.096Z,55.18
2023-05-21T15:55:45.704Z,57.14
2023-05-21T15:58:12.146Z,58.61
2023-05-21T16:00:38.586Z,58.97
2023-05-21T16:03:05.112Z,57.84
2023-05-21T16:05:31.588Z,58.99
2023-05-21T16:07:57.960Z,61.37
2023-05-21T16:10:24.380Z,56.85
2023-05-21T16:12:50.834Z,59.95
2023-05-21T16:15:17.271Z,56.29
2023-05-21T16:17:43.716Z,57.75
2023-05-21T16:20:10.169Z,59.56
2023-05-21T16:22:36.586Z,58.14
2023-05-21T16:25:03.029Z,57.51
2023-05-21T16:27:29.521Z,60.37
2023-05-21T16:29:56.101Z,59.58
2023-05-21T16:32:22.845Z,58.23
2023-05-21T16:34:49.342Z,65.90
2023-05-21T16:37:15.774Z,61.14
2023-05-21T16:39:42.239Z,62.06
2023-05-21T16:42:08.677Z,61.55
2023-05-21T16:44:35.130Z,61.86
2023-05-21T16:47:01.574Z,59.55
2023-05-21T16:49:28.054Z,62.42
2023-05-21T16:51:54.469Z,59.80
2023-05-21T16:54:20.944Z,65.29
2023-05-21T16:56:47.365Z,65.92
2023-05-21T16:59:13.808Z,64.47
2023-05-21T17:01:40.276Z,64.70
2023-05-21T17:04:06.829Z,63.22
2023-05-21T17:06:33.288Z,63.47
2023-05-21T17:08:59.717Z,66.65
2023-05-21T17:11:26.094Z,66.05
2023-05-21T17:13:52.509Z,63.80
2023-05-21T17:16:18.957Z,63.16
2023-05-21T17:18:45.470Z,59.29
2023-05-21T17:21:11.864Z,58.65
2023-05-21T17:23:38.257Z,60.42
2023-05-21T17:26:04.677Z,61.24
2023-05-21T17:28:31.054Z,62.11
2023-05-21T17:30:57.578Z,61.66
2023-05-21T17:33:23.991Z,67.53
2023-05-21T17:35:50.419Z,67.37
2023-05-21T17:38:16.810Z,67.64
2023-05-21T17:40:43.210Z,65.82
2023-05-21T17:43:09.737Z,67.89
2023-05-21T17:45:36.380Z,69.99
2023-05-21T17:48:02.902Z,69.82
2023-05-21T17:50:29.388Z,66.63
2023-05-21T17:52:55.860Z,67.65
2023-05-21T17:55:22.243Z,63.90
2023-05-21T17:57:48.724Z,63.23
2023-05-21T18:00:15.137Z,64.54
2023-05-21T18:02:41.585Z,62.66
2023-05-21T18:05:07.971Z,65.94
2023-05-21T18:07:34.376Z,66.61
2023-05-21T18:10:00.800Z,66.09
2023-05-21T18:12:27.224Z,65.00
2023-05-21T18:14:53.649Z,66.78
2023-05-21T18:17:20.155Z,69.85
2023-05-21T18:19:46.531Z,67.67
2023-05-21T18:22:12.904Z,69.78
2023-05-21T18:24:39.321Z,70.28
2023-05-21T18:27:05.764Z,68.03
2023-05-21T18:29:32.210Z,74.07
2023-05-21T18:31:58.684Z,69.25
2023-05-21T18:34:25.137Z,71.62
2023-05-21T18:36:51.526Z,74.70
2023-05-21T18:39:17.946Z,75.99
2023-05-21T18:41:44.336Z,71.15
2023-05-21T18:44:10.789Z,78.05
2023-05-21T18:46:37.316Z,74.41
2023-05-21T18:49:03.753Z,78.66
2023-05-21T18:51:30.154Z,76.05
2023-05-21T18:53:56.586Z,76.92
2023-05-21T18:56:23.022Z,81.43
2023-05-21T18:58:49.465Z,80.20
2023-05-21T19:01:15.969Z,79.48
2023-05-21T19:03:42.514Z,77.91
2023-05-21T19:06:08.945Z,78.87
2023-05-21T19:08:35.374Z,77.56
2023-05-21T19:11:01.779Z,77.73
2023-05-21T19:13:28.157Z,76.35
2023-05-21T19:15:54.611Z,80.40
2023-05-21T19:18:21.098Z,83.00
2023-05-21T19:20:47.599Z,83.67
2023-05-21T19:23:14.013Z,84.49
2023-05-21T19:25:40.397Z,84.96
2023-05-21T19:28:06.861Z,87.20
2023-05-21T19:30:33.291Z,85.37
2023-05-21T19:32:59.739Z,84.61
2023-05-21T19:35:26.313Z,86.27
2023-05-21T19:37:52.698Z,84.52
2023-05-21T19:40:19.067Z,85.81
2023-05-21T19:42:45.488Z,86.43
2023-05-21T19:45:11.904Z,87.75
2023-05-21T19:47:38.438Z,85.52
2023-05-21T19:50:04.831Z,83.81
2023-05-21T19:52:31.200Z,81.69
2023-05-21T19:54:57.630Z,84.37
2023-05-21T19:57:24.096Z,81.44
2023-05-21T19:59:50.480Z,86.17
2023-05-21T20:02:16.866Z,85.94
2023-05-21T20:04:43.326Z,87.07
2023-05-21T20:07:09.798Z,85.95
2023-05-21T20:09:36.361Z,88.68
2023-05-21T20:12:02.729Z,89.14
2023-05-21T20:14:29.164Z,89.11
2023-05-21T20:16:55.560Z,86.66
2023-05-21T20:19:22.271Z,85.05
2023-05-21T20:21:48.683Z,84.63
2023-05-21T20:24:15.108Z,85.71
2023-05-21T20:26:41.540Z,84.72
2023-05-21T20:29:08.018Z,85.17
2023-05-21T20:31:34.615Z,84.86
2023-05-21T20:34:01.189Z,86.48
2023-05-21T20:36:27.617Z,91.40
2023-05-21T20:38:54.043Z,87.34
2023-05-21T20:41:20.448Z,86.28
2023-05-21T20:43:46.819Z,86.67
2023-05-21T20:46:13.229Z,86.59
2023-05-21T20:48:39.685Z,87.78
2023-05-21T20:51:06.156Z,86.83
2023-05-21T20:53:32.545Z,84.73
2023-05-21T20:55:58.946Z,82.68
2023-05-21T20:58:25.328Z,81.86
2023-05-21T21:00:51.775Z,82.89
2023-05-21T21:03:18.409Z,83.32
2023-05-21T21:05:44.889Z,84.13
2023-05-21T21:08:11.273Z,87.07
2023-05-21T21:10:37.781Z,85.34
2023-05-21T21:13:04.394Z,85.06
2023-05-21T21:15:30.829Z,85.41
2023-05-21T21:17:57.247Z,84.47
2023-05-21T21:20:23.661Z,85.34
2023-05-21T21:22:50.088Z,84.62
2023-05-21T21:25:16.502Z,85.83
2023-05-21T21:27:42.933Z,86.99
2023-05-21T21:30:09.370Z,87.12
2023-05-21T21:32:35.850Z,87.55
2023-05-21T21:35:02.308Z,88.28
2023-05-21T21:37:28.759Z,87.61
2023-05-21T21:39:55.202Z,88.96
2023-05-21T21:42:21.608Z,89.25
2023-05-21T21:44:48.079Z,90.22
2023-05-21T21:47:14.472Z,91.16
2023-05-21T21:49:40.853Z,90.91
2023-05-21T21:52:07.264Z,90.74
2023-05-21T21:54:33.644Z,90.86
2023-05-21T21:57:00.072Z,91.56
2023-05-21T21:59:26.565Z,91.09
2023-05-21T22:01:53.106Z,90.78
2023-05-21T22:04:19.601Z,90.57
2023-05-21T22:06:46.030Z,90.10
2023-05-21T22:09:12.547Z,90.76
2023-05-21T22:11:39.128Z,91.82
2023-05-21T22:14:05.516Z,91.57
2023-05-21T22:16:31.928Z,92.37
2023-05-21T22:18:58.381Z,92.83
2023-05-21T22:21:24.772Z,93.21
2023-05-21T22:23:51.184Z,93.44
2023-05-21T22:26:17.624Z,93.12
2023-05-21T22:28:44.073Z,93.30
2023-05-21T22:31:10.520Z,94.17
2023-05-21T22:33:36.905Z,94.32
2023-05-21T22:36:03.302Z,95.30
2023-05-21T22:38:29.745Z,95.21
2023-05-21T22:40:56.366Z,95.49
2023-05-21T22:43:22.797Z,95.59
2023-05-21T22:45:49.229Z,95.56
2023-05-21T22:48:15.655Z,96.08
2023-05-21T22:50:42.140Z,96.23
2023-05-21T22:53:08.606Z,96.62
2023-05-21T22:55:35.012Z,97.33
2023-05-21T22:58:01.375Z,97.12
2023-05-21T23:00:27.795Z,97.75
2023-05-21T23:02:54.713Z,96.93
2023-05-21T23:05:21.403Z,96.64
2023-05-21T23:07:47.872Z,97.30
2023-05-21T23:10:14.258Z,96.15
2023-05-21T23:12:40.681Z,95.24
2023-05-21T23:15:07.124Z,95.42
2023-05-21T23:17:33.612Z,95.36
2023-05-21T23:20:00.153Z,95.50
2023-05-21T23:22:26.616Z,95.26
2023-05-21T23:24:53.040Z,95.94
2023-05-21T23:27:19.506Z,95.75
2023-05-21T23:29:45.927Z,96.30
2023-05-21T23:32:12.342Z,96.52
2023-05-21T23:34:38.769Z,97.18
2023-05-21T23:37:05.201Z,97.13
2023-05-21T23:39:31.587Z,96.89
2023-05-21T23:41:57.957Z,97.02
2023-05-21T23:44:24.389Z,97.04
2023-05-21T23:46:50.767Z,97.25
2023-05-21T23:49:17.133Z,96.56
2023-05-21T23:51:43.544Z,96.64
2023-05-21T23:54:09.943Z,96.66
2023-05-21T23:56:36.360Z,96.50
2023-05-21T23:59:02.768Z,96.77
